Terminal Aerodrome Forecast
Issued by NWS Topeka, KS

Home | Current Version | Previous Version | Graphics & Text | Print | Product List | Glossary On
Versions: 1 2 3 4 5 6 7 8 9 10 11 12 13 14 15
823
FTUS43 KTOP 120259 AAB
TAFTOP
TAF AMD
KTOP 120259Z 1203/1224 34020G30KT P6SM BKN040
     FM120500 33015KT P6SM SCT060
     FM120900 33010KT P6SM SCT060 SCT250=

USA.gov is the U.S. government's official web portal to all federal, state and local government web resources and services.